createdAt,value
2022-10-05T00:00:53.375Z,12.88
2022-10-05T00:03:22.573Z,14.80
2022-10-05T00:05:51.161Z,12.75
2022-10-05T00:08:20.677Z,11.55
2022-10-05T00:10:49.239Z,9.77
2022-10-05T00:13:18.897Z,12.07
2022-10-05T00:15:47.205Z,9.73
2022-10-05T00:18:18.082Z,11.27
2022-10-05T00:20:46.843Z,12.85
2022-10-05T00:23:16.976Z,17.27
2022-10-05T00:25:45.278Z,11.52
2022-10-05T00:28:18.031Z,13.48
2022-10-05T00:30:46.698Z,13.93
2022-10-05T00:33:15.032Z,11.05
2022-10-05T00:35:44.682Z,12.23
2022-10-05T00:38:12.981Z,12.52
2022-10-05T00:40:47.405Z,11.27
2022-10-05T00:43:42.972Z,12.00
2022-10-05T00:46:13.976Z,11.77
2022-10-05T00:48:47.731Z,12.32
2022-10-05T00:51:23.936Z,11.65
2022-10-05T00:53:56.516Z,14.43
2022-10-05T00:56:37.677Z,12.60
2022-10-05T00:59:12.135Z,14.48
2022-10-05T01:01:44.419Z,12.90
2022-10-05T01:04:17.953Z,14.57
2022-10-05T01:06:53.478Z,13.13
2022-10-05T01:09:28.043Z,15.52
2022-10-05T01:11:59.652Z,14.68
2022-10-05T01:14:30.939Z,16.00
2022-10-05T01:17:01.087Z,15.77
2022-10-05T01:19:36.371Z,13.82
2022-10-05T01:22:09.270Z,13.70
2022-10-05T01:24:46.515Z,16.67
2022-10-05T01:27:23.161Z,16.40
2022-10-05T01:29:56.572Z,17.60
2022-10-05T01:32:28.682Z,13.50
2022-10-05T01:35:01.042Z,12.82
2022-10-05T01:37:32.250Z,12.98
2022-10-05T01:40:08.151Z,16.30
2022-10-05T01:42:44.593Z,15.10
2022-10-05T01:45:19.572Z,16.55
2022-10-05T01:47:48.965Z,17.23
2022-10-05T01:50:21.132Z,14.85
2022-10-05T01:52:55.025Z,14.43
2022-10-05T01:55:27.027Z,14.88
2022-10-05T01:58:00.102Z,11.32
2022-10-05T02:00:30.504Z,13.10
2022-10-05T02:03:01.191Z,18.00
2022-10-05T02:05:33.520Z,15.20
2022-10-05T02:08:02.916Z,11.52
2022-10-05T02:10:33.614Z,13.52
2022-10-05T02:13:03.702Z,14.95
2022-10-05T02:15:36.996Z,12.98
2022-10-05T02:18:08.763Z,13.50
2022-10-05T02:20:39.144Z,13.15
2022-10-05T02:23:09.980Z,13.93
2022-10-05T02:25:40.012Z,11.90
2022-10-05T02:28:11.806Z,14.00
2022-10-05T02:30:45.000Z,13.77
2022-10-05T02:33:19.395Z,16.75
2022-10-05T02:35:48.324Z,11.95
2022-10-05T02:38:21.163Z,12.10
2022-10-05T02:40:55.524Z,16.25
2022-10-05T02:43:29.277Z,11.48
2022-10-05T02:46:03.130Z,12.02
2022-10-05T02:48:37.108Z,14.32
2022-10-05T02:51:11.837Z,12.80
2022-10-05T02:53:45.423Z,11.18
2022-10-05T02:56:18.376Z,14.80
2022-10-05T02:58:49.643Z,13.13
2022-10-05T03:01:24.337Z,12.23
2022-10-05T03:03:57.606Z,12.90
2022-10-05T03:06:28.611Z,12.75
2022-10-05T03:09:01.596Z,13.57
2022-10-05T03:11:37.079Z,13.30
2022-10-05T03:14:10.105Z,11.65
2022-10-05T03:16:46.572Z,13.32
2022-10-05T03:19:23.674Z,16.83
2022-10-05T03:21:57.033Z,11.77
2022-10-05T03:24:41.211Z,12.88
2022-10-05T03:27:16.045Z,15.05
2022-10-05T03:29:47.884Z,16.20
2022-10-05T03:32:21.622Z,10.80
2022-10-05T03:34:52.443Z,12.98
2022-10-05T03:37:24.509Z,16.55
2022-10-05T03:39:55.270Z,12.10
2022-10-05T03:42:26.455Z,15.38
2022-10-05T03:44:58.564Z,14.38
2022-10-05T03:47:34.272Z,11.90
2022-10-05T03:50:25.220Z,11.80
2022-10-05T03:52:57.524Z,14.88
2022-10-05T03:55:30.212Z,15.48
2022-10-05T03:58:01.495Z,13.00
2022-10-05T04:00:32.217Z,12.02
2022-10-05T04:03:07.296Z,15.52
2022-10-05T04:05:38.257Z,16.67
2022-10-05T04:08:09.277Z,21.58
2022-10-05T04:10:41.509Z,19.77
2022-10-05T04:13:14.643Z,18.63
2022-10-05T04:15:45.879Z,19.52
2022-10-05T04:18:20.777Z,22.85
2022-10-05T04:20:52.274Z,28.25
2022-10-05T04:23:24.974Z,22.58
2022-10-05T04:25:54.645Z,33.90
2022-10-05T04:28:31.939Z,27.23
2022-10-05T04:31:02.106Z,35.65
2022-10-05T04:33:33.274Z,28.15
2022-10-05T04:36:09.875Z,27.27
2022-10-05T04:38:56.177Z,29.00
2022-10-05T04:41:36.950Z,32.00
2022-10-05T04:44:15.072Z,31.88
2022-10-05T04:46:50.725Z,30.70
2022-10-05T04:49:29.168Z,31.83
2022-10-05T04:52:02.506Z,28.33
2022-10-05T04:54:37.667Z,39.95
2022-10-05T04:57:09.177Z,31.15
2022-10-05T04:59:46.547Z,25.98
2022-10-05T05:02:18.817Z,27.80
2022-10-05T05:04:56.895Z,37.75
2022-10-05T05:07:30.447Z,28.50
2022-10-05T05:10:14.050Z,30.48
2022-10-05T05:12:47.195Z,35.45
2022-10-05T05:15:24.070Z,29.10
2022-10-05T05:18:02.186Z,30.63
2022-10-05T05:20:38.565Z,29.25
2022-10-05T05:23:12.298Z,30.83
2022-10-05T05:25:44.621Z,25.85
2022-10-05T05:28:18.481Z,26.60
2022-10-05T05:30:50.047Z,29.48
2022-10-05T05:33:21.416Z,25.90
2022-10-05T05:36:02.900Z,33.40
2022-10-05T05:38:33.284Z,26.80
2022-10-05T05:41:09.099Z,25.38
2022-10-05T05:43:52.984Z,25.90
2022-10-05T05:46:34.202Z,25.88
2022-10-05T05:49:17.339Z,23.05
2022-10-05T05:51:51.903Z,28.90
2022-10-05T05:54:24.507Z,26.60
2022-10-05T05:56:55.560Z,22.70
2022-10-05T05:59:27.238Z,28.88
2022-10-05T06:01:58.301Z,26.17
2022-10-05T06:04:28.377Z,32.17
2022-10-05T06:07:00.067Z,25.80
2022-10-05T06:09:32.725Z,25.08
2022-10-05T06:12:11.982Z,24.23
2022-10-05T06:14:43.872Z,32.22
2022-10-05T06:17:14.073Z,25.77
2022-10-05T06:19:44.289Z,30.67
2022-10-05T06:22:17.144Z,27.40
2022-10-05T06:24:55.088Z,25.40
2022-10-05T06:27:26.969Z,25.50
2022-10-05T06:30:10.367Z,31.35
2022-10-05T06:32:59.318Z,27.40
2022-10-05T06:35:35.255Z,28.38
2022-10-05T06:38:12.854Z,25.15
2022-10-05T06:40:47.404Z,28.42
2022-10-05T06:43:22.981Z,30.38
2022-10-05T06:46:12.091Z,22.30
2022-10-05T06:49:12.396Z,27.75
2022-10-05T06:52:11.210Z,25.25
2022-10-05T06:54:53.380Z,26.80
2022-10-05T06:57:36.240Z,27.08
2022-10-05T07:00:07.379Z,22.23
2022-10-05T07:02:41.010Z,26.75
2022-10-05T07:05:25.554Z,22.63
2022-10-05T07:07:56.156Z,28.30
2022-10-05T07:10:31.007Z,27.77
2022-10-05T07:13:07.453Z,23.83
2022-10-05T07:15:43.666Z,26.42
2022-10-05T07:18:31.978Z,24.27
2022-10-05T07:21:02.973Z,28.73
2022-10-05T07:23:39.882Z,23.65
2022-10-05T07:26:11.507Z,22.70
2022-10-05T07:28:46.161Z,25.25
2022-10-05T07:31:18.845Z,21.15
2022-10-05T07:33:49.442Z,22.45
2022-10-05T07:36:39.003Z,22.30
2022-10-05T07:39:11.310Z,23.73
2022-10-05T07:41:45.901Z,24.25
2022-10-05T07:44:16.951Z,24.77
2022-10-05T07:46:52.460Z,24.50
2022-10-05T07:49:25.070Z,24.77
2022-10-05T07:51:56.302Z,25.52
2022-10-05T07:54:26.884Z,28.17
2022-10-05T07:57:03.276Z,25.17
2022-10-05T07:59:33.540Z,27.33
2022-10-05T08:02:06.299Z,24.88
2022-10-05T08:04:41.693Z,25.25
2022-10-05T08:07:14.213Z,26.90
2022-10-05T08:09:45.406Z,26.58
2022-10-05T08:12:23.679Z,31.25
2022-10-05T08:14:54.949Z,33.25
2022-10-05T08:17:27.771Z,31.60
2022-10-05T08:20:00.357Z,28.20
2022-10-05T08:22:31.470Z,29.63
2022-10-05T08:25:00.768Z,27.10
2022-10-05T08:27:34.880Z,29.25
2022-10-05T08:30:04.483Z,28.77
2022-10-05T08:32:35.564Z,31.55
2022-10-05T08:35:09.624Z,33.30
2022-10-05T08:37:40.965Z,35.15
2022-10-05T08:40:21.833Z,32.88
2022-10-05T08:43:01.538Z,34.03
2022-10-05T08:45:48.135Z,32.05
2022-10-05T08:48:37.472Z,28.63
2022-10-05T08:51:22.948Z,32.40
2022-10-05T08:54:05.334Z,32.13
2022-10-05T08:56:39.757Z,27.70
2022-10-05T08:59:22.945Z,31.00
2022-10-05T09:02:10.577Z,31.23
2022-10-05T09:04:45.277Z,28.48
2022-10-05T09:07:22.647Z,27.20
2022-10-05T09:10:24.232Z,27.58
2022-10-05T09:13:06.757Z,27.88
2022-10-05T09:15:40.536Z,27.20
2022-10-05T09:18:30.070Z,29.50
2022-10-05T09:21:00.553Z,28.88
2022-10-05T09:23:36.069Z,31.20
2022-10-05T09:26:09.169Z,25.83
2022-10-05T09:28:45.713Z,23.90
2022-10-05T09:31:30.127Z,25.75
2022-10-05T09:34:12.733Z,22.42
2022-10-05T09:36:56.045Z,28.77
2022-10-05T09:39:45.447Z,24.48
2022-10-05T09:42:19.739Z,28.23
2022-10-05T09:45:01.747Z,21.20
2022-10-05T09:47:36.929Z,21.08
2022-10-05T09:50:23.221Z,19.80
2022-10-05T09:53:05.876Z,18.27
2022-10-05T09:55:53.431Z,17.05
2022-10-05T09:58:39.402Z,18.33
2022-10-05T10:01:32.650Z,18.67
2022-10-05T10:04:14.306Z,18.35
2022-10-05T10:07:04.955Z,13.98
2022-10-05T10:09:39.987Z,13.88
2022-10-05T10:12:19.371Z,16.65
2022-10-05T10:15:05.403Z,17.33
2022-10-05T10:17:55.436Z,26.92
2022-10-05T10:20:32.069Z,18.55
2022-10-05T10:23:06.695Z,20.70
2022-10-05T10:25:45.063Z,19.48
2022-10-05T10:28:20.398Z,17.50
2022-10-05T10:30:57.121Z,22.38
2022-10-05T10:33:41.836Z,23.55
2022-10-05T10:36:12.946Z,22.63
2022-10-05T10:38:42.219Z,32.03
2022-10-05T10:41:19.526Z,26.55
2022-10-05T10:44:07.608Z,25.17
2022-10-05T10:46:41.285Z,23.50
2022-10-05T10:49:24.765Z,29.13
2022-10-05T10:52:04.940Z,25.17
2022-10-05T10:54:44.167Z,27.20
2022-10-05T10:57:16.115Z,21.25
2022-10-05T11:00:02.890Z,28.27
2022-10-05T11:02:42.775Z,22.95
2022-10-05T11:05:31.941Z,21.38
2022-10-05T11:08:12.530Z,17.42
2022-10-05T11:11:01.950Z,16.45
2022-10-05T11:13:38.787Z,15.95
2022-10-05T11:16:40.371Z,14.00
2022-10-05T11:19:39.997Z,11.88
2022-10-05T11:22:31.238Z,12.23
2022-10-05T11:25:02.928Z,10.75
2022-10-05T11:27:46.085Z,14.00
2022-10-05T11:30:29.317Z,8.43
2022-10-05T11:33:13.964Z,9.50
2022-10-05T11:35:57.050Z,10.88
2022-10-05T11:38:36.701Z,7.47
2022-10-05T11:41:25.471Z,10.82
2022-10-05T11:44:16.409Z,8.93
2022-10-05T11:46:49.949Z,8.50
2022-10-05T11:49:34.279Z,7.00
2022-10-05T11:52:07.765Z,8.00
2022-10-05T11:55:09.426Z,7.47
2022-10-05T11:57:34.253Z,9.38
2022-10-05T12:00:07.049Z,6.63
2022-10-05T12:02:53.150Z,5.95
2022-10-05T12:05:25.618Z,6.10
2022-10-05T12:07:59.836Z,6.72
2022-10-05T12:10:32.725Z,7.25
2022-10-05T12:13:09.667Z,9.07
2022-10-05T12:15:41.138Z,6.55
2022-10-05T12:18:13.396Z,8.55
2022-10-05T12:20:48.543Z,6.55
2022-10-05T12:23:19.655Z,7.10
2022-10-05T12:25:49.654Z,5.55
2022-10-05T12:28:21.411Z,8.52
2022-10-05T12:31:01.920Z,7.53
2022-10-05T12:33:34.739Z,5.03
2022-10-05T12:36:07.259Z,10.65
2022-10-05T12:38:39.688Z,5.55
2022-10-05T12:41:13.489Z,5.75
2022-10-05T12:43:48.844Z,6.05
2022-10-05T12:46:21.312Z,5.78
2022-10-05T12:49:04.736Z,5.15
2022-10-05T12:51:39.247Z,7.60
2022-10-05T12:54:13.661Z,8.40
2022-10-05T12:56:45.292Z,6.57
2022-10-05T12:59:21.248Z,8.77
2022-10-05T13:01:54.630Z,6.43
2022-10-05T13:04:28.645Z,6.82
2022-10-05T13:07:08.620Z,7.45
2022-10-05T13:09:41.561Z,6.55
2022-10-05T13:12:13.672Z,6.40
2022-10-05T13:14:47.523Z,6.22
2022-10-05T13:17:19.307Z,8.07
2022-10-05T13:19:48.430Z,5.78
2022-10-05T13:22:27.308Z,7.43
2022-10-05T13:25:00.446Z,6.15
2022-10-05T13:27:31.069Z,6.63
2022-10-05T13:30:02.692Z,6.78
2022-10-05T13:32:35.675Z,7.60
2022-10-05T13:35:11.523Z,6.78
2022-10-05T13:37:46.791Z,6.68
2022-10-05T13:40:18.802Z,7.53
2022-10-05T13:42:48.957Z,5.10
2022-10-05T13:45:21.421Z,7.35
2022-10-05T13:48:03.899Z,5.07
2022-10-05T13:50:34.696Z,6.50
2022-10-05T13:53:12.776Z,5.78
2022-10-05T13:55:44.875Z,7.47
2022-10-05T13:58:17.560Z,6.65
2022-10-05T14:00:48.571Z,5.68
2022-10-05T14:03:27.832Z,8.02
2022-10-05T14:05:57.635Z,7.18
2022-10-05T14:08:29.245Z,8.48
2022-10-05T14:10:58.209Z,6.28
2022-10-05T14:13:27.552Z,8.98
2022-10-05T14:16:04.366Z,7.10
2022-10-05T14:18:34.002Z,8.60
2022-10-05T14:21:03.793Z,8.32
2022-10-05T14:23:33.617Z,6.80
2022-10-05T14:26:04.476Z,7.50
2022-10-05T14:28:34.319Z,11.45
2022-10-05T14:31:03.880Z,9.77
2022-10-05T14:33:32.954Z,10.35
2022-10-05T14:36:02.399Z,7.20
2022-10-05T14:38:31.478Z,7.80
2022-10-05T14:41:17.186Z,7.05
2022-10-05T14:43:56.791Z,9.77
2022-10-05T14:46:27.852Z,8.38
2022-10-05T14:49:12.165Z,10.13
2022-10-05T14:51:42.170Z,7.20
2022-10-05T14:54:25.111Z,6.15
2022-10-05T14:56:59.907Z,7.45
2022-10-05T14:59:36.970Z,8.48
2022-10-05T15:02:15.678Z,8.27
2022-10-05T15:04:46.638Z,6.65
2022-10-05T15:07:19.973Z,6.45
2022-10-05T15:09:56.760Z,9.05
2022-10-05T15:12:31.294Z,6.30
2022-10-05T15:15:03.150Z,7.03
2022-10-05T15:17:35.599Z,7.65
2022-10-05T15:20:06.108Z,8.55
2022-10-05T15:22:41.212Z,6.60
2022-10-05T15:25:14.364Z,10.13
2022-10-05T15:27:53.867Z,7.93
2022-10-05T15:30:23.365Z,6.70
2022-10-05T15:33:04.315Z,6.30
2022-10-05T15:35:54.193Z,9.75
2022-10-05T15:38:25.737Z,7.93
2022-10-05T15:40:59.738Z,10.88
2022-10-05T15:43:32.667Z,7.35
2022-10-05T15:46:07.118Z,10.25
2022-10-05T15:48:41.107Z,8.88
2022-10-05T15:51:15.337Z,7.47
2022-10-05T15:53:47.450Z,8.07
2022-10-05T15:56:18.404Z,12.18
2022-10-05T15:58:57.686Z,8.93
2022-10-05T16:01:41.000Z,6.82
2022-10-05T16:04:15.109Z,9.60
2022-10-05T16:07:02.430Z,8.80
2022-10-05T16:09:45.490Z,7.72
2022-10-05T16:12:20.395Z,7.20
2022-10-05T16:15:06.660Z,6.70
2022-10-05T16:17:47.927Z,10.25
2022-10-05T16:20:25.476Z,6.40
2022-10-05T16:22:59.413Z,8.30
2022-10-05T16:25:35.807Z,6.65
2022-10-05T16:28:12.079Z,7.97
2022-10-05T16:30:45.166Z,6.53
2022-10-05T16:33:20.095Z,7.53
2022-10-05T16:35:53.736Z,6.40
2022-10-05T16:38:27.938Z,8.02
2022-10-05T16:41:02.209Z,7.28
2022-10-05T16:43:36.640Z,6.40
2022-10-05T16:46:10.356Z,9.55
2022-10-05T16:48:46.550Z,7.75
2022-10-05T16:51:21.607Z,6.90
2022-10-05T16:53:52.977Z,6.57
2022-10-05T16:56:25.063Z,6.72
2022-10-05T16:58:58.269Z,9.68
2022-10-05T17:01:41.943Z,9.00
2022-10-05T17:04:18.145Z,7.88
2022-10-05T17:06:53.918Z,8.55
2022-10-05T17:09:40.217Z,7.25
2022-10-05T17:12:15.540Z,7.38
2022-10-05T17:14:51.245Z,9.80
2022-10-05T17:17:29.541Z,8.82
2022-10-05T17:20:05.386Z,8.80
2022-10-05T17:22:39.511Z,10.25
2022-10-05T17:25:11.466Z,8.50
2022-10-05T17:27:52.130Z,8.57
2022-10-05T17:30:23.416Z,7.10
2022-10-05T17:33:04.629Z,11.02
2022-10-05T17:35:51.727Z,10.30
2022-10-05T17:38:21.671Z,13.63
2022-10-05T17:41:06.131Z,14.32
2022-10-05T17:43:34.927Z,9.93
2022-10-05T17:46:04.011Z,8.80
2022-10-05T17:48:54.114Z,9.40
2022-10-05T17:51:51.245Z,9.80
2022-10-05T17:54:39.884Z,11.55
2022-10-05T17:57:17.640Z,10.13
2022-10-05T17:59:48.973Z,10.13
2022-10-05T18:02:21.959Z,9.70
2022-10-05T18:04:52.093Z,10.73
2022-10-05T18:07:21.894Z,8.40
2022-10-05T18:09:58.801Z,9.38
2022-10-05T18:12:46.997Z,11.80
2022-10-05T18:15:31.109Z,7.88
2022-10-05T18:18:20.009Z,6.65
2022-10-05T18:21:03.193Z,9.23
2022-10-05T18:23:35.975Z,12.30
2022-10-05T18:26:20.572Z,15.98
2022-10-05T18:28:56.589Z,17.95
2022-10-05T18:31:29.866Z,9.07
2022-10-05T18:34:02.299Z,7.78
2022-10-05T18:36:40.121Z,9.88
2022-10-05T18:39:15.073Z,11.05
2022-10-05T18:41:50.865Z,9.95
2022-10-05T18:44:27.686Z,6.72
2022-10-05T18:47:01.197Z,8.73
2022-10-05T18:49:41.232Z,9.10
2022-10-05T18:52:13.401Z,15.60
2022-10-05T18:54:48.314Z,8.05
2022-10-05T18:57:34.201Z,11.38
2022-10-05T19:00:03.913Z,15.00
2022-10-05T19:02:36.437Z,12.13
2022-10-05T19:05:23.783Z,10.10
2022-10-05T19:08:03.361Z,15.32
2022-10-05T19:10:37.140Z,10.15
2022-10-05T19:13:12.345Z,6.30
2022-10-05T19:15:44.299Z,7.15
2022-10-05T19:18:22.716Z,6.68
2022-10-05T19:20:53.809Z,8.25
2022-10-05T19:23:39.889Z,8.57
2022-10-05T19:26:13.737Z,8.35
2022-10-05T19:28:49.583Z,7.15
2022-10-05T19:31:24.452Z,11.95
2022-10-05T19:33:59.867Z,6.03
2022-10-05T19:36:34.484Z,6.95
2022-10-05T19:39:05.031Z,6.35
2022-10-05T19:41:38.902Z,6.00
2022-10-05T19:44:13.376Z,6.28
2022-10-05T19:46:49.980Z,6.15
2022-10-05T19:49:33.173Z,5.85
2022-10-05T19:52:02.092Z,6.50
2022-10-05T19:54:30.426Z,5.88
2022-10-05T19:56:59.778Z,7.82
2022-10-05T19:59:31.710Z,6.15
2022-10-05T20:02:02.362Z,7.88
2022-10-05T20:04:36.033Z,4.53
2022-10-05T20:07:04.461Z,4.70
2022-10-05T20:09:50.394Z,5.53
2022-10-05T20:12:18.705Z,6.50
2022-10-05T20:15:02.301Z,6.53
2022-10-05T20:17:48.728Z,4.93
2022-10-05T20:20:24.594Z,5.43
2022-10-05T20:22:53.124Z,5.50
2022-10-05T20:25:31.653Z,4.95
2022-10-05T20:28:00.047Z,6.90
2022-10-05T20:30:31.533Z,5.03
2022-10-05T20:33:01.440Z,5.10
2022-10-05T20:35:30.597Z,5.72
2022-10-05T20:38:00.288Z,9.07
2022-10-05T20:40:29.171Z,6.15
2022-10-05T20:42:57.779Z,5.00
2022-10-05T20:45:26.225Z,5.97
2022-10-05T20:47:55.860Z,5.80
2022-10-05T20:50:24.405Z,5.53
2022-10-05T20:52:52.959Z,4.75
2022-10-05T20:55:21.655Z,5.45
2022-10-05T20:57:49.933Z,6.28
2022-10-05T21:00:18.264Z,4.78
2022-10-05T21:02:46.747Z,5.28
2022-10-05T21:05:18.010Z,4.93
2022-10-05T21:07:46.691Z,5.90
2022-10-05T21:10:15.090Z,5.32
2022-10-05T21:12:43.678Z,5.80
2022-10-05T21:15:12.469Z,4.93
2022-10-05T21:17:40.749Z,5.10
2022-10-05T21:20:11.490Z,4.60
2022-10-05T21:22:41.827Z,7.03
2022-10-05T21:25:10.475Z,5.78
2022-10-05T21:27:38.771Z,6.63
2022-10-05T21:30:07.573Z,5.00
2022-10-05T21:32:37.677Z,6.90
2022-10-05T21:35:09.324Z,6.88
2022-10-05T21:37:37.636Z,6.85
2022-10-05T21:40:07.745Z,5.05
2022-10-05T21:42:36.056Z,6.05
2022-10-05T21:45:04.378Z,5.70
2022-10-05T21:47:33.524Z,6.05
2022-10-05T21:50:03.614Z,5.68
2022-10-05T21:52:32.631Z,5.65
2022-10-05T21:55:00.987Z,7.25
2022-10-05T21:57:30.642Z,6.57
2022-10-05T21:59:58.961Z,5.10
2022-10-05T22:02:27.243Z,7.20
2022-10-05T22:04:57.717Z,5.50
2022-10-05T22:07:26.068Z,4.50
2022-10-05T22:09:54.370Z,5.60
2022-10-05T22:12:24.321Z,6.53
2022-10-05T22:14:53.967Z,6.82
2022-10-05T22:17:24.807Z,7.57
2022-10-05T22:19:53.201Z,4.95
2022-10-05T22:22:21.892Z,6.10
2022-10-05T22:24:50.179Z,8.43
2022-10-05T22:27:18.519Z,6.65
2022-10-05T22:29:46.849Z,5.35
2022-10-05T22:32:16.713Z,6.78
2022-10-05T22:34:45.037Z,5.85
2022-10-05T22:37:14.172Z,6.70
2022-10-05T22:39:42.833Z,5.60
2022-10-05T22:42:11.623Z,6.32
2022-10-05T22:44:40.230Z,6.95
2022-10-05T22:47:08.512Z,7.72
2022-10-05T22:49:38.152Z,5.20
2022-10-05T22:52:06.454Z,5.90
2022-10-05T22:54:37.286Z,7.15
2022-10-05T22:57:05.824Z,5.75
2022-10-05T22:59:34.418Z,6.13
2022-10-05T23:02:03.008Z,6.07
2022-10-05T23:04:31.372Z,7.25
2022-10-05T23:07:01.082Z,6.55
2022-10-05T23:09:29.634Z,5.68
2022-10-05T23:11:58.101Z,8.27
2022-10-05T23:14:26.893Z,6.85
2022-10-05T23:16:55.209Z,7.28
2022-10-05T23:19:23.631Z,6.18
2022-10-05T23:21:51.942Z,8.23
2022-10-05T23:24:21.580Z,6.20
2022-10-05T23:26:49.866Z,6.57
2022-10-05T23:29:18.154Z,7.03
2022-10-05T23:31:46.472Z,7.63
2022-10-05T23:34:14.740Z,8.25
2022-10-05T23:36:43.029Z,6.72
2022-10-05T23:39:11.544Z,7.78
2022-10-05T23:41:43.165Z,6.07
2022-10-05T23:44:12.627Z,7.78
2022-10-05T23:46:40.917Z,6.05
2022-10-05T23:49:09.200Z,8.65
2022-10-05T23:51:37.725Z,6.25
2022-10-05T23:54:06.151Z,8.18
2022-10-05T23:56:34.486Z,6.32
2022-10-05T23:59:04.102Z,7.47
